createdAt,value
2019-02-09T00:02:28.038Z,8.55
2019-02-09T00:05:30.821Z,8.30
2019-02-09T00:08:35.244Z,8.34
2019-02-09T00:11:40.033Z,8.28
2019-02-09T00:14:42.673Z,8.13
2019-02-09T00:17:45.412Z,8.07
2019-02-09T00:20:48.155Z,8.26
2019-02-09T00:23:51.747Z,8.22
2019-02-09T00:26:56.477Z,8.36
2019-02-09T00:30:00.947Z,8.08
2019-02-09T00:33:04.128Z,8.09
2019-02-09T00:36:06.856Z,8.32
2019-02-09T00:39:09.457Z,8.14
2019-02-09T00:42:12.106Z,8.01
2019-02-09T00:45:15.961Z,8.05
2019-02-09T00:48:19.673Z,7.96
2019-02-09T00:51:22.388Z,8.27
2019-02-09T00:54:25.206Z,7.91
2019-02-09T00:57:27.908Z,7.86
2019-02-09T01:00:31.585Z,7.58
2019-02-09T01:03:35.483Z,7.43
2019-02-09T01:06:38.098Z,7.39
2019-02-09T01:09:40.744Z,7.40
2019-02-09T01:12:43.416Z,7.19
2019-02-09T01:15:47.246Z,7.03
2019-02-09T01:18:49.807Z,6.99
2019-02-09T01:21:53.645Z,7.01
2019-02-09T01:24:56.206Z,6.89
2019-02-09T01:27:58.774Z,6.93
2019-02-09T01:31:02.099Z,6.87
2019-02-09T01:34:04.712Z,6.82
2019-02-09T01:37:08.109Z,6.87
2019-02-09T01:40:13.230Z,6.96
2019-02-09T01:43:16.093Z,6.82
2019-02-09T01:46:18.683Z,6.73
2019-02-09T01:49:21.281Z,6.78
2019-02-09T01:52:23.959Z,6.69
2019-02-09T01:55:28.132Z,6.74
2019-02-09T01:58:30.797Z,6.71
2019-02-09T02:01:33.367Z,6.65
2019-02-09T02:04:35.973Z,6.67
2019-02-09T02:07:38.621Z,6.64
2019-02-09T02:10:41.372Z,6.63
2019-02-09T02:13:44.057Z,6.70
2019-02-09T02:16:46.813Z,6.71
2019-02-09T02:19:50.628Z,6.67
2019-02-09T02:22:53.348Z,6.61
2019-02-09T02:25:55.918Z,6.64
2019-02-09T02:28:58.592Z,6.58
2019-02-09T02:32:01.136Z,6.60
2019-02-09T02:35:04.503Z,6.57
2019-02-09T02:38:07.218Z,6.57
2019-02-09T02:41:09.769Z,6.50
2019-02-09T02:44:12.452Z,6.52
2019-02-09T02:47:15.122Z,6.45
2019-02-09T02:50:18.537Z,6.49
2019-02-09T02:53:21.237Z,6.59
2019-02-09T02:56:23.967Z,6.59
2019-02-09T02:59:26.555Z,6.74
2019-02-09T03:02:29.220Z,6.88
2019-02-09T03:05:31.927Z,6.67
2019-02-09T03:08:34.552Z,6.68
2019-02-09T03:11:37.233Z,6.69
2019-02-09T03:14:39.790Z,6.58
2019-02-09T03:17:42.445Z,6.53
2019-02-09T03:20:45.195Z,6.57
2019-02-09T03:23:47.912Z,6.64
2019-02-09T03:26:50.446Z,6.66
2019-02-09T03:29:53.610Z,6.57
2019-02-09T03:32:56.395Z,6.63
2019-02-09T03:35:59.062Z,6.61
2019-02-09T03:39:03.002Z,6.58
2019-02-09T03:42:06.623Z,6.51
2019-02-09T03:45:19.080Z,6.53
2019-02-09T03:48:21.737Z,6.59
2019-02-09T03:51:24.464Z,6.61
2019-02-09T03:54:27.237Z,6.53
2019-02-09T03:57:30.031Z,6.57
2019-02-09T04:00:33.701Z,6.54
2019-02-09T04:03:36.377Z,6.56
2019-02-09T04:06:39.140Z,6.56
2019-02-09T04:09:41.774Z,6.63
2019-02-09T04:12:44.378Z,6.58
2019-02-09T04:15:47.150Z,6.57
2019-02-09T04:18:49.802Z,6.58
2019-02-09T04:21:52.546Z,6.66
2019-02-09T04:24:55.181Z,6.64
2019-02-09T04:27:57.967Z,6.61
2019-02-09T04:31:06.008Z,6.69
2019-02-09T04:34:08.007Z,6.64
2019-02-09T04:37:10.824Z,6.66
2019-02-09T04:40:16.065Z,6.68
2019-02-09T04:43:18.651Z,6.65
2019-02-09T04:46:21.218Z,6.71
2019-02-09T04:49:23.882Z,6.71
2019-02-09T04:52:26.552Z,6.64
2019-02-09T04:55:29.191Z,6.64
2019-02-09T04:58:31.827Z,6.66
2019-02-09T05:01:34.433Z,6.65
2019-02-09T05:04:37.009Z,6.66
2019-02-09T05:07:39.636Z,6.73
2019-02-09T05:10:42.166Z,6.73
2019-02-09T05:13:44.825Z,6.72
2019-02-09T05:16:47.683Z,6.70
2019-02-09T05:19:50.365Z,6.72
2019-02-09T05:22:53.641Z,6.70
2019-02-09T05:25:56.297Z,6.75
2019-02-09T05:28:58.885Z,6.81
2019-02-09T05:32:01.451Z,6.76
2019-02-09T05:35:04.572Z,6.83
2019-02-09T05:38:08.455Z,6.89
2019-02-09T05:41:11.048Z,6.87
2019-02-09T05:44:13.741Z,7.04
2019-02-09T05:47:16.424Z,7.03
2019-02-09T05:50:19.343Z,7.00
2019-02-09T05:53:22.093Z,7.03
2019-02-09T05:56:27.772Z,7.08
2019-02-09T05:59:30.666Z,7.02
2019-02-09T06:02:33.318Z,7.08
2019-02-09T06:05:36.068Z,7.14
2019-02-09T06:08:39.626Z,7.25
2019-02-09T06:11:42.331Z,7.20
2019-02-09T06:14:45.598Z,7.23
2019-02-09T06:17:48.182Z,7.32
2019-02-09T06:20:51.695Z,7.33
2019-02-09T06:23:54.400Z,7.46
2019-02-09T06:26:57.419Z,7.39
2019-02-09T06:30:00.315Z,7.40
2019-02-09T06:33:04.947Z,7.43
2019-02-09T06:36:08.761Z,7.43
2019-02-09T06:39:11.447Z,7.31
2019-02-09T06:42:14.182Z,7.29
2019-02-09T06:45:19.632Z,7.18
2019-02-09T06:48:27.202Z,7.28
2019-02-09T06:51:29.800Z,7.30
2019-02-09T06:54:32.406Z,7.38
2019-02-09T06:57:35.335Z,7.22
2019-02-09T07:00:38.217Z,7.20
2019-02-09T07:03:40.846Z,7.18
2019-02-09T07:06:43.717Z,7.11
2019-02-09T07:09:46.360Z,7.12
2019-02-09T07:12:50.352Z,7.26
2019-02-09T07:15:52.955Z,7.29
2019-02-09T07:18:55.586Z,7.34
2019-02-09T07:21:59.057Z,7.40
2019-02-09T07:25:01.751Z,7.33
2019-02-09T07:28:05.056Z,7.39
2019-02-09T07:31:07.755Z,7.35
2019-02-09T07:34:10.321Z,7.44
2019-02-09T07:37:13.393Z,7.43
2019-02-09T07:40:16.747Z,7.45
2019-02-09T07:43:19.332Z,7.42
2019-02-09T07:46:22.206Z,7.44
2019-02-09T07:49:24.906Z,7.46
2019-02-09T07:52:27.586Z,7.44
2019-02-09T07:55:30.207Z,7.47
2019-02-09T07:58:33.165Z,7.56
2019-02-09T08:01:35.794Z,7.62
2019-02-09T08:04:38.391Z,7.72
2019-02-09T08:07:41.200Z,7.79
2019-02-09T08:10:44.367Z,7.88
2019-02-09T08:13:47.088Z,8.00
2019-02-09T08:16:49.671Z,7.90
2019-02-09T08:19:52.345Z,7.94
2019-02-09T08:22:55.999Z,7.96
2019-02-09T08:25:58.659Z,7.99
2019-02-09T08:29:01.452Z,8.00
2019-02-09T08:32:12.316Z,8.14
2019-02-09T08:35:09.307Z,8.12
2019-02-09T08:38:13.620Z,8.16
2019-02-09T08:41:16.347Z,8.14
2019-02-09T08:44:19.972Z,8.14
2019-02-09T08:47:22.611Z,8.21
2019-02-09T08:50:30.983Z,8.18
2019-02-09T08:53:33.571Z,8.33
2019-02-09T08:56:36.152Z,8.36
2019-02-09T08:59:38.955Z,8.42
2019-02-09T09:02:43.307Z,8.39
2019-02-09T09:05:46.401Z,8.45
2019-02-09T09:08:49.046Z,8.49
2019-02-09T09:11:51.680Z,8.61
2019-02-09T09:14:54.260Z,8.50
2019-02-09T09:17:57.002Z,8.61
2019-02-09T09:21:01.532Z,8.81
2019-02-09T09:24:04.209Z,8.62
2019-02-09T09:27:06.891Z,8.52
2019-02-09T09:30:11.821Z,8.65
2019-02-09T09:33:14.455Z,8.82
2019-02-09T09:36:17.161Z,8.85
2019-02-09T09:39:19.917Z,8.73
2019-02-09T09:42:22.632Z,8.83
2019-02-09T09:45:27.614Z,8.81
2019-02-09T09:48:30.367Z,9.02
2019-02-09T09:51:33.230Z,8.71
2019-02-09T09:54:35.990Z,8.83
2019-02-09T09:57:38.777Z,8.76
2019-02-09T10:00:41.575Z,8.79
2019-02-09T10:03:44.237Z,8.78
2019-02-09T10:06:47.012Z,8.98
2019-02-09T10:09:49.749Z,9.00
2019-02-09T10:12:52.421Z,9.01
2019-02-09T10:15:55.229Z,8.92
2019-02-09T10:18:58.067Z,9.10
2019-02-09T10:22:00.776Z,9.08
2019-02-09T10:25:04.173Z,9.07
2019-02-09T10:28:06.887Z,9.02
2019-02-09T10:31:10.411Z,9.04
2019-02-09T10:34:13.081Z,9.20
2019-02-09T10:37:15.655Z,9.38
2019-02-09T10:40:20.544Z,9.32
2019-02-09T10:43:23.207Z,9.32
2019-02-09T10:46:25.891Z,9.44
2019-02-09T10:49:28.476Z,9.25
2019-02-09T10:52:31.201Z,9.21
2019-02-09T10:55:34.040Z,9.34
2019-02-09T10:58:36.567Z,9.18
2019-02-09T11:01:39.446Z,8.98
2019-02-09T11:04:42.158Z,9.04
2019-02-09T11:07:45.019Z,8.85
2019-02-09T11:10:47.845Z,8.94
2019-02-09T11:13:50.555Z,8.95
2019-02-09T11:16:53.200Z,9.26
2019-02-09T11:19:55.879Z,8.91
2019-02-09T11:22:58.527Z,9.03
2019-02-09T11:26:01.304Z,9.16
2019-02-09T11:29:04.239Z,9.22
2019-02-09T11:32:06.882Z,9.35
2019-02-09T11:35:09.894Z,9.50
2019-02-09T11:38:12.630Z,9.56
2019-02-09T11:41:15.380Z,9.62
2019-02-09T11:44:19.124Z,9.75
2019-02-09T11:47:21.867Z,9.82
2019-02-09T11:50:24.695Z,9.64
2019-02-09T11:53:27.279Z,9.74
2019-02-09T11:56:29.989Z,9.71
2019-02-09T11:59:32.643Z,9.51
2019-02-09T12:02:35.370Z,9.75
2019-02-09T12:05:38.092Z,9.71
2019-02-09T12:08:40.737Z,9.59
2019-02-09T12:11:43.469Z,9.69
2019-02-09T12:14:46.155Z,9.60
2019-02-09T12:17:48.811Z,9.69
2019-02-09T12:20:51.490Z,9.54
2019-02-09T12:23:54.211Z,9.69
2019-02-09T12:26:56.925Z,9.82
2019-02-09T12:29:59.686Z,9.55
2019-02-09T12:33:02.908Z,9.67
2019-02-09T12:36:05.855Z,9.76
2019-02-09T12:39:09.875Z,9.81
2019-02-09T12:42:13.136Z,9.52
2019-02-09T12:45:16.496Z,9.44
2019-02-09T12:48:21.685Z,9.66
2019-02-09T12:51:25.444Z,9.68
2019-02-09T12:54:28.512Z,9.67
2019-02-09T12:57:31.764Z,9.57
2019-02-09T13:00:35.490Z,9.63
2019-02-09T13:03:38.294Z,9.67
2019-02-09T13:06:41.278Z,9.65
2019-02-09T13:09:43.963Z,9.62
2019-02-09T13:12:46.731Z,9.66
2019-02-09T13:15:49.794Z,9.65
2019-02-09T13:18:54.768Z,9.54
2019-02-09T13:21:57.615Z,9.60
2019-02-09T13:25:00.323Z,9.67
2019-02-09T13:28:03.673Z,9.57
2019-02-09T13:31:08.160Z,9.60
2019-02-09T13:34:12.050Z,9.65
2019-02-09T13:37:14.638Z,9.52
2019-02-09T13:40:18.044Z,9.62
2019-02-09T13:43:20.720Z,9.66
2019-02-09T13:46:23.304Z,9.66
2019-02-09T13:49:25.919Z,9.62
2019-02-09T13:52:28.562Z,9.68
2019-02-09T13:55:31.528Z,9.52
2019-02-09T13:58:34.135Z,9.36
2019-02-09T14:01:36.750Z,9.31
2019-02-09T14:04:39.323Z,9.32
2019-02-09T14:07:42.149Z,9.32
2019-02-09T14:10:44.724Z,9.21
2019-02-09T14:13:47.416Z,9.12
2019-02-09T14:16:49.948Z,8.93
2019-02-09T14:19:52.550Z,8.36
2019-02-09T14:22:55.329Z,8.23
2019-02-09T14:25:58.099Z,8.34
2019-02-09T14:29:00.741Z,8.51
2019-02-09T14:32:03.401Z,8.47
2019-02-09T14:35:08.166Z,8.45
2019-02-09T14:38:11.079Z,8.45
2019-02-09T14:41:13.794Z,8.50
2019-02-09T14:44:16.333Z,8.57
2019-02-09T14:47:18.959Z,8.75
2019-02-09T14:50:21.664Z,8.71
2019-02-09T14:53:25.204Z,8.64
2019-02-09T14:56:28.019Z,8.49
2019-02-09T14:59:30.674Z,8.38
2019-02-09T15:02:33.367Z,8.41
2019-02-09T15:05:36.338Z,8.37
2019-02-09T15:08:38.948Z,8.43
2019-02-09T15:11:41.718Z,8.45
2019-02-09T15:14:44.317Z,8.44
2019-02-09T15:17:46.996Z,8.56
2019-02-09T15:20:53.082Z,8.48
2019-02-09T15:23:55.795Z,8.42
2019-02-09T15:26:58.445Z,8.35
2019-02-09T15:30:01.035Z,8.41
2019-02-09T15:33:03.892Z,8.35
2019-02-09T15:36:06.553Z,8.34
2019-02-09T15:39:09.281Z,8.29
2019-02-09T15:42:11.914Z,8.23
2019-02-09T15:45:16.329Z,8.23
2019-02-09T15:48:19.032Z,8.23
2019-02-09T15:51:21.919Z,8.09
2019-02-09T15:54:24.618Z,8.15
2019-02-09T15:57:28.353Z,8.06
2019-02-09T16:00:31.248Z,8.05
2019-02-09T16:03:34.006Z,7.99
2019-02-09T16:06:36.658Z,7.94
2019-02-09T16:09:39.334Z,7.93
2019-02-09T16:12:41.954Z,8.03
2019-02-09T16:15:44.609Z,8.09
2019-02-09T16:18:49.423Z,8.18
2019-02-09T16:21:52.033Z,8.23
2019-02-09T16:24:54.631Z,8.19
2019-02-09T16:27:57.662Z,8.29
2019-02-09T16:31:00.397Z,8.12
2019-02-09T16:34:03.183Z,8.04
2019-02-09T16:37:06.232Z,8.11
2019-02-09T16:40:14.783Z,8.11
2019-02-09T16:43:17.374Z,8.09
2019-02-09T16:46:20.026Z,8.03
2019-02-09T16:49:24.721Z,8.05
2019-02-09T16:52:27.208Z,7.98
2019-02-09T16:55:29.947Z,7.90
2019-02-09T16:58:32.768Z,7.94
2019-02-09T17:01:35.463Z,8.00
2019-02-09T17:04:38.038Z,7.98
2019-02-09T17:07:40.730Z,8.09
2019-02-09T17:10:43.478Z,7.99
2019-02-09T17:13:46.320Z,7.82
2019-02-09T17:16:49.036Z,7.56
2019-02-09T17:19:51.818Z,7.49
2019-02-09T17:22:54.568Z,7.61
2019-02-09T17:25:57.282Z,7.60
2019-02-09T17:28:59.974Z,7.58
2019-02-09T17:32:04.553Z,7.64
2019-02-09T17:35:08.007Z,7.75
2019-02-09T17:38:10.719Z,7.75
2019-02-09T17:41:13.442Z,7.81
2019-02-09T17:44:16.203Z,7.75
2019-02-09T17:47:18.853Z,7.89
2019-02-09T17:50:21.734Z,7.73
2019-02-09T17:53:24.405Z,7.70
2019-02-09T17:56:26.962Z,7.61
2019-02-09T17:59:29.757Z,7.57
2019-02-09T18:02:32.362Z,7.43
2019-02-09T18:05:34.958Z,7.34
2019-02-09T18:08:37.487Z,7.41
2019-02-09T18:11:40.263Z,7.49
2019-02-09T18:14:42.969Z,7.37
2019-02-09T18:17:45.563Z,7.33
2019-02-09T18:20:48.197Z,7.27
2019-02-09T18:23:50.903Z,7.38
2019-02-09T18:26:53.503Z,7.30
2019-02-09T18:29:56.075Z,7.22
2019-02-09T18:32:58.861Z,7.18
2019-02-09T18:36:01.582Z,7.17
2019-02-09T18:39:09.426Z,7.01
2019-02-09T18:42:12.174Z,6.86
2019-02-09T18:45:17.814Z,6.94
2019-02-09T18:48:20.540Z,6.96
2019-02-09T18:51:23.167Z,6.99
2019-02-09T18:54:25.965Z,7.12
2019-02-09T18:57:28.632Z,7.15
2019-02-09T19:00:32.155Z,7.07
2019-02-09T19:03:34.728Z,7.16
2019-02-09T19:06:37.419Z,7.23
2019-02-09T19:09:40.271Z,7.37
2019-02-09T19:12:42.990Z,7.35
2019-02-09T19:15:45.692Z,7.40
2019-02-09T19:18:48.443Z,7.46
2019-02-09T19:21:51.132Z,7.55
2019-02-09T19:24:53.858Z,7.59
2019-02-09T19:27:56.589Z,7.52
2019-02-09T19:30:59.319Z,7.60
2019-02-09T19:34:02.178Z,7.57
2019-02-09T19:37:05.853Z,7.52
2019-02-09T19:40:09.188Z,7.53
2019-02-09T19:43:11.863Z,7.47
2019-02-09T19:46:14.483Z,7.49
2019-02-09T19:49:17.171Z,7.48
2019-02-09T19:52:19.822Z,7.45
2019-02-09T19:55:24.433Z,7.41
2019-02-09T19:58:27.008Z,7.37
2019-02-09T20:01:29.607Z,7.37
2019-02-09T20:04:32.312Z,7.31
2019-02-09T20:07:34.987Z,7.13
2019-02-09T20:10:38.370Z,7.19
2019-02-09T20:13:42.820Z,7.09
2019-02-09T20:16:45.539Z,7.01
2019-02-09T20:19:48.172Z,7.02
2019-02-09T20:22:50.842Z,6.83
2019-02-09T20:25:53.543Z,6.90
2019-02-09T20:28:56.160Z,6.97
2019-02-09T20:31:59.871Z,7.04
2019-02-09T20:35:02.727Z,7.07
2019-02-09T20:38:05.723Z,7.01
2019-02-09T20:41:09.171Z,7.03
2019-02-09T20:44:11.957Z,7.08
2019-02-09T20:47:14.610Z,7.12
2019-02-09T20:50:17.774Z,7.00
2019-02-09T20:53:20.453Z,7.23
2019-02-09T20:56:23.087Z,7.22
2019-02-09T20:59:25.823Z,7.13
2019-02-09T21:02:28.574Z,6.99
2019-02-09T21:05:36.408Z,6.95
2019-02-09T21:08:35.947Z,6.91
2019-02-09T21:11:38.691Z,7.10
2019-02-09T21:14:41.388Z,7.05
2019-02-09T21:17:44.077Z,7.19
2019-02-09T21:20:46.741Z,7.11
2019-02-09T21:23:49.431Z,7.07
2019-02-09T21:26:52.165Z,6.88
2019-02-09T21:29:54.915Z,6.82
2019-02-09T21:32:57.656Z,6.82
2019-02-09T21:36:01.189Z,6.68
2019-02-09T21:39:07.886Z,6.70
2019-02-09T21:42:10.653Z,6.81
2019-02-09T21:45:18.851Z,6.60
2019-02-09T21:48:21.491Z,6.45
2019-02-09T21:51:24.230Z,6.45
2019-02-09T21:54:26.917Z,6.43
2019-02-09T21:57:29.657Z,6.52
2019-02-09T22:00:34.425Z,6.54
2019-02-09T22:03:37.162Z,6.61
2019-02-09T22:06:39.846Z,6.56
2019-02-09T22:09:42.569Z,6.48
2019-02-09T22:12:45.437Z,6.41
2019-02-09T22:15:48.070Z,6.71
2019-02-09T22:18:51.019Z,6.69
2019-02-09T22:21:54.046Z,6.71
2019-02-09T22:24:57.124Z,6.89
2019-02-09T22:28:01.074Z,6.94
2019-02-09T22:31:04.031Z,6.97
2019-02-09T22:34:06.787Z,7.02
2019-02-09T22:37:09.436Z,7.07
2019-02-09T22:40:14.670Z,7.22
2019-02-09T22:43:18.408Z,7.20
2019-02-09T22:46:21.202Z,7.34
2019-02-09T22:49:23.858Z,7.50
2019-02-09T22:52:27.070Z,7.42
2019-02-09T22:55:29.847Z,7.59
2019-02-09T22:58:32.503Z,7.48
2019-02-09T23:01:52.852Z,7.48
2019-02-09T23:05:02.066Z,7.52
2019-02-09T23:08:05.931Z,7.45
2019-02-09T23:11:08.587Z,7.45
2019-02-09T23:14:11.186Z,7.46
2019-02-09T23:17:13.905Z,7.40
2019-02-09T23:20:16.492Z,7.41
2019-02-09T23:23:19.227Z,7.57
2019-02-09T23:26:21.910Z,7.57
2019-02-09T23:29:24.512Z,7.47
2019-02-09T23:32:27.227Z,7.57
2019-02-09T23:35:29.890Z,7.59
2019-02-09T23:38:32.626Z,7.60
2019-02-09T23:41:35.329Z,7.45
2019-02-09T23:44:37.981Z,7.33
2019-02-09T23:47:40.771Z,7.31
2019-02-09T23:50:43.456Z,7.34
2019-02-09T23:53:46.077Z,7.19
2019-02-09T23:56:48.785Z,7.26
2019-02-09T23:59:51.442Z,7.17
